Markdale, Canada
Current Conditions -  °F | °C
As of 3:00 PM on Wednesday 28 Jan 2015 (Local Time) from CYBN Reporting Station
Clear Clear  
Wind Chill: 27°   Ceiling: Unl
Heat Index: 27°   Visibility: 9mi
Dew Point: 10°   Wind: 3mph
Humidity: 51%   Direction: 100°E
Pressure: 30.25"   Gusts: NA
Location:  44.32°N, 80.65°W
Report Text: CYBN 282000Z AUTO 10003KT 9SM CLR M03/M12 A3025 RMK SLP263
Loading
Personal Weather Stations






























Interactive Weather Map New forecast layout! Learn more

10-Day Weather Forecast

Advertisements
Track Severe Weather on mobile